Pacific Princess — ZCDS3 — position and weather

sailwx.info

Track history (hours):
 
Tides and Currents Weather Stations Pressure Air Temp Water Temp Dewpoint Dewpoint Depression Visibility Wind Speed Wind Dir Waves Ship Positions

Pacific Princess (Bermuda)

Last reported at 2015-Sep-03 05:25 UTC. Time now 2015-Sep-05 14:12 UTC.
Position N 58°14' W 135°31'.

Length 180.5 m; beam 25.6 m; draft 6 m.

Type: Passenger vessel. MMSI: 310504000.

Date/timePositionNaut miles runAvg speedWind from/ knotsBaromVisibWave heightAir tempDewpointWater temp
2015-Sep-03 05:25N 58°14' W 135°31'9 9.7
2015-Sep-03 04:33N 58°18' W 135°46'9 8.7
2015-Sep-03 03:33N 58°23' W 135°58'1212.0
2015-Sep-03 02:33N 58°35' W 136°04'7 0.8
2015-Sep-02 18:21N 58°41' W 136°11'1114.3
2015-Sep-02 17:33N 58°30' W 136°03'8 8.3
2015-Sep-02 16:33N 58°22' W 135°58'25510.0
2015-Sep-01 15:00N 59°30' W 143°54'5413.5 010 / 201006.710.8 14.0 8.510.0
2015-Sep-01 11:00N 59°54' W 145°30'   010 / 191006.210.8 13.0 5.110.0
2015-Aug-29 23:33N 58°19' W 136°10'1111.4
2015-Aug-29 22:33N 58°30' W 136°04'12 1.8
2015-Aug-29 15:33N 58°42' W 136°12'1312.9
2015-Aug-29 14:33N 58°30' W 136°03'9 8.8
2015-Aug-29 13:33N 58°21' W 135°57'1211.9
2015-Aug-29 12:33N 58°17' W 135°36'1710.6
2015-Aug-29 11:00N 58°12' W 135°06'37 0.8 270 / 10996.510.8 10.5 9.610.0
2015-Aug-27 12:00N 57°42' W 135°48'48810.9 010 / 51015.410.8 13.011.312.0
2015-Aug-25 15:18N 51°01' W 127°51'1115.3
2015-Aug-25 14:34N 50°54' W 127°37'713.2
2015-Aug-25 14:00N 50°48' W 127°30'1126.0 010 / 41018.010.8 15.013.312.0
2015-Aug-25 13:33N 50°46' W 127°12'7217.0
2015-Aug-25 09:19N 50°20' W 125°26'1215.9
2015-Aug-25 08:33N 50°09' W 125°21'1313.2
2015-Aug-25 07:33N 49°58' W 125°10'1312.8
2015-Aug-25 06:33N 49°49' W 124°55'1312.6
2015-Aug-25 05:31N 49°40' W 124°41'1212.7
2015-Aug-25 04:32N 49°30' W 124°29'1212.4
2015-Aug-25 03:33N 49°24' W 124°13'1212.5
2015-Aug-25 02:33N 49°23' W 123°54'1312.6
2015-Aug-25 01:34N 49°20' W 123°35'1312.6
2015-Aug-25 00:33N 49°19' W 123°15'6 6.0
2015-Aug-24 23:32N 49°17' W 123°06'0 0.0
2015-Aug-24 22:32N 49°17' W 123°06'0 0.0
2015-Aug-24 21:32N 49°17' W 123°06'0 0.0
2015-Aug-24 20:32N 49°17' W 123°06'0 0.0
2015-Aug-24 19:32N 49°17' W 123°06'0 0.0
2015-Aug-24 18:32N 49°17' W 123°06'0 0.0
2015-Aug-24 17:32N 49°17' W 123°06'0 0.0
2015-Aug-24 16:33N 49°17' W 123°06'0 0.0
2015-Aug-24 15:33N 49°17' W 123°06'0 0.0
2015-Aug-24 14:33N 49°17' W 123°06'0 0.2
2015-Aug-24 13:34N 49°18' W 123°06'8 8.2
2015-Aug-24 12:33N 49°18' W 123°19'10 9.6
2015-Aug-24 11:33N 49°18' W 123°33'11 9.8
2015-Aug-24 10:29N 49°20' W 123°49'9 9.8
2015-Aug-24 09:32N 49°22' W 124°03'10 9.8
2015-Aug-24 08:31N 49°25' W 124°18'9 9.7
2015-Aug-24 07:33N 49°30' W 124°30'1110.0
2015-Aug-24 06:29N 49°38' W 124°40'910.0
2015-Aug-24 05:33N 49°45' W 124°51'  
Track history (hours):
 
Tides and Currents Weather Stations Pressure Air Temp Water Temp Dewpoint Dewpoint Depression Visibility Wind Speed Wind Dir Waves Ship Positions

Pacific Princess (Bermuda)

Last reported at 2015-Sep-03 05:25 UTC. Time now 2015-Sep-05 14:12 UTC.
Position N 58°14' W 135°31'.

Length 180.5 m; beam 25.6 m; draft 6 m.

Type: Passenger vessel. MMSI: 310504000.

Date/timePositionNaut miles runAvg speedWind from/ knotsBaromVisibWave heightAir tempDewpointWater temp
2015-Sep-03 05:25N 58°14' W 135°31'9 9.7
2015-Sep-03 04:33N 58°18' W 135°46'9 8.7
2015-Sep-03 03:33N 58°23' W 135°58'1212.0
2015-Sep-03 02:33N 58°35' W 136°04'7 0.8
2015-Sep-02 18:21N 58°41' W 136°11'1114.3
2015-Sep-02 17:33N 58°30' W 136°03'8 8.3
2015-Sep-02 16:33N 58°22' W 135°58'25510.0
2015-Sep-01 15:00N 59°30' W 143°54'5413.5 010 / 201006.710.8 14.0 8.510.0
2015-Sep-01 11:00N 59°54' W 145°30'   010 / 191006.210.8 13.0 5.110.0
2015-Aug-29 23:33N 58°19' W 136°10'1111.4
2015-Aug-29 22:33N 58°30' W 136°04'12 1.8
2015-Aug-29 15:33N 58°42' W 136°12'1312.9
2015-Aug-29 14:33N 58°30' W 136°03'9 8.8
2015-Aug-29 13:33N 58°21' W 135°57'1211.9
2015-Aug-29 12:33N 58°17' W 135°36'1710.6
2015-Aug-29 11:00N 58°12' W 135°06'37 0.8 270 / 10996.510.8 10.5 9.610.0
2015-Aug-27 12:00N 57°42' W 135°48'48810.9 010 / 51015.410.8 13.011.312.0
2015-Aug-25 15:18N 51°01' W 127°51'1115.3
2015-Aug-25 14:34N 50°54' W 127°37'713.2
2015-Aug-25 14:00N 50°48' W 127°30'1126.0 010 / 41018.010.8 15.013.312.0
2015-Aug-25 13:33N 50°46' W 127°12'7217.0
2015-Aug-25 09:19N 50°20' W 125°26'1215.9
2015-Aug-25 08:33N 50°09' W 125°21'1313.2
2015-Aug-25 07:33N 49°58' W 125°10'1312.8
2015-Aug-25 06:33N 49°49' W 124°55'1312.6
2015-Aug-25 05:31N 49°40' W 124°41'1212.7
2015-Aug-25 04:32N 49°30' W 124°29'1212.4
2015-Aug-25 03:33N 49°24' W 124°13'1212.5
2015-Aug-25 02:33N 49°23' W 123°54'1312.6
2015-Aug-25 01:34N 49°20' W 123°35'1312.6
2015-Aug-25 00:33N 49°19' W 123°15'6 6.0
2015-Aug-24 23:32N 49°17' W 123°06'0 0.0
2015-Aug-24 22:32N 49°17' W 123°06'0 0.0
2015-Aug-24 21:32N 49°17' W 123°06'0 0.0
2015-Aug-24 20:32N 49°17' W 123°06'0 0.0
2015-Aug-24 19:32N 49°17' W 123°06'0 0.0
2015-Aug-24 18:32N 49°17' W 123°06'0 0.0
2015-Aug-24 17:32N 49°17' W 123°06'0 0.0
2015-Aug-24 16:33N 49°17' W 123°06'0 0.0
2015-Aug-24 15:33N 49°17' W 123°06'0 0.0
2015-Aug-24 14:33N 49°17' W 123°06'0 0.2
2015-Aug-24 13:34N 49°18' W 123°06'8 8.2
2015-Aug-24 12:33N 49°18' W 123°19'10 9.6
2015-Aug-24 11:33N 49°18' W 123°33'11 9.8
2015-Aug-24 10:29N 49°20' W 123°49'9 9.8
2015-Aug-24 09:32N 49°22' W 124°03'10 9.8
2015-Aug-24 08:31N 49°25' W 124°18'9 9.7
2015-Aug-24 07:33N 49°30' W 124°30'1110.0
2015-Aug-24 06:29N 49°38' W 124°40'910.0
2015-Aug-24 05:33N 49°45' W 124°51'  

Dump ship's entire track history